Time;durP1;ratioP1;P1;durP2;ratioP2;P2;SDS_P1;SDS_P2;PMS_P1;PMS_P2;Temp;Humidity;BMP_temperature;BMP_pressure;BME280_temperature;BME280_humidity;BME280_pressure;Samples;Min_cycle;Max_cycle;Signal;HPM_P1;HPM_P2
2021/03/24 00:00:24;;;;;;;3.75;1.65;;;;;;;25.29;28.93;97389.78;5053597;28;20040;-29
2021/03/24 00:02:49;;;;;;;2.05;1.67;;;;;;;25.29;28.88;97387.16;5049909;28;20065;-27
2021/03/24 00:05:16;;;;;;;3.45;1.60;;;;;;;25.29;28.94;97381.06;5053806;28;20029;-27
2021/03/24 00:07:42;;;;;;;2.70;1.70;;;;;;;25.29;28.92;97381.06;5050860;28;20111;-28
2021/03/24 00:10:11;;;;;;;2.67;1.50;;;;;;;25.29;28.89;97376.66;5053933;28;20028;-25
2021/03/24 00:12:37;;;;;;;1.83;1.42;;;;;;;25.28;28.92;97377.59;5059234;28;20619;-27
2021/03/24 00:15:04;;;;;;;2.20;1.40;;;;;;;25.28;28.65;97380.22;5038710;28;20076;-27
2021/03/24 00:17:29;;;;;;;3.05;1.55;;;;;;;25.29;28.88;97381.91;5054223;28;20094;-27
2021/03/24 00:19:55;;;;;;;1.95;1.55;;;;;;;25.28;28.66;97380.22;5055746;28;20484;-27
2021/03/24 00:22:20;;;;;;;2.03;1.35;;;;;;;25.27;28.72;97375.91;5035499;28;20040;-27
2021/03/24 00:24:46;;;;;;;1.63;1.40;;;;;;;25.27;28.87;97377.66;5053391;28;20024;-27
2021/03/24 00:27:11;;;;;;;2.03;1.67;;;;;;;25.28;28.62;97376.75;5051438;28;20424;-29
2021/03/24 00:29:36;;;;;;;3.03;1.80;;;;;;;25.28;28.59;97379.38;5056069;28;20399;-29
2021/03/24 00:32:02;;;;;;;1.92;1.60;;;;;;;25.24;28.59;97376.00;5033607;28;20036;-33
2021/03/24 00:34:28;;;;;;;2.10;1.45;;;;;;;25.26;28.74;97373.34;5041397;28;20131;-29
2021/03/24 00:36:53;;;;;;;2.13;1.58;;;;;;;25.25;28.63;97367.22;5035932;28;20025;-28
2021/03/24 00:39:18;;;;;;;2.92;1.60;;;;;;;25.26;28.75;97374.19;5051951;28;20032;-27
2021/03/24 00:41:44;;;;;;;4.10;1.50;;;;;;;25.25;28.83;97372.47;5053363;28;20029;-27
2021/03/24 00:44:09;;;;;;;2.33;1.48;;;;;;;25.25;28.76;97385.56;5055362;28;20028;-26
2021/03/24 00:46:35;;;;;;;3.03;1.45;;;;;;;25.24;28.72;97373.38;5058601;28;20025;-27
2021/03/24 00:49:00;;;;;;;1.98;1.60;;;;;;;25.25;28.78;97374.25;5055698;28;20501;-27
2021/03/24 00:51:25;;;;;;;2.58;1.38;;;;;;;25.23;28.58;97376.94;5053950;28;20033;-29
2021/03/24 00:53:51;;;;;;;3.15;1.58;;;;;;;25.23;28.81;97374.31;5058148;28;20028;-27
2021/03/24 00:56:16;;;;;;;2.28;1.20;;;;;;;25.22;28.62;97375.25;5051014;28;20032;-29
2021/03/24 00:58:42;;;;;;;2.22;1.50;;;;;;;25.21;28.67;97373.53;5034358;28;20036;-28
2021/03/24 01:01:07;;;;;;;1.30;1.20;;;;;;;25.22;28.59;97366.50;5051946;28;20033;-27
2021/03/24 01:03:35;;;;;;;4.10;1.70;;;;;;;25.21;28.67;97373.53;5049915;28;20019;-27
2021/03/24 01:06:00;;;;;;;1.77;1.50;;;;;;;25.21;28.58;97370.91;5054087;28;20364;-27
2021/03/24 01:08:26;;;;;;;1.88;1.48;;;;;;;25.21;28.78;97370.06;5055401;28;20041;-29
2021/03/24 01:10:52;;;;;;;2.17;1.60;;;;;;;25.21;28.60;97362.19;5053249;28;20527;-28
2021/03/24 01:13:18;;;;;;;2.03;1.38;;;;;;;25.21;28.61;97367.44;5061755;28;20012;-27
2021/03/24 01:15:43;;;;;;;1.35;1.25;;;;;;;25.21;28.54;97362.19;5022830;28;20081;-28
2021/03/24 01:18:09;;;;;;;2.75;1.63;;;;;;;25.20;28.66;97365.72;5053161;28;20031;-28
2021/03/24 01:20:36;;;;;;;2.35;1.70;;;;;;;25.18;28.55;97358.75;5038694;28;20037;-28
2021/03/24 01:23:01;;;;;;;4.10;1.83;;;;;;;25.20;28.43;97355.25;5054058;28;20021;-28
2021/03/24 01:25:27;;;;;;;1.45;1.17;;;;;;;25.20;28.49;97357.84;5054585;28;20757;-30
2021/03/24 01:27:53;;;;;;;2.47;1.70;;;;;;;25.18;28.59;97348.25;5055766;28;20401;-27
2021/03/24 01:30:19;;;;;;;1.90;1.40;;;;;;;25.19;28.41;97357.00;5038268;28;20036;-27
2021/03/24 01:32:45;;;;;;;1.60;1.23;;;;;;;25.20;28.39;97355.25;5037511;28;20066;-29
2021/03/24 01:35:12;;;;;;;2.38;1.30;;;;;;;25.19;28.42;97354.38;5056371;28;20517;-28
2021/03/24 01:37:39;;;;;;;2.83;1.40;;;;;;;25.18;28.47;97353.50;5040421;28;20059;-27
2021/03/24 01:40:09;;;;;;;2.55;1.35;;;;;;;25.17;28.44;97349.19;5054435;28;20036;-30
2021/03/24 01:42:34;;;;;;;2.00;1.23;;;;;;;25.17;28.49;97350.97;5034041;28;20142;-28
2021/03/24 01:45:05;;;;;;;1.63;1.20;;;;;;;25.17;28.37;97353.59;5051932;28;20496;-28
2021/03/24 01:47:31;;;;;;;1.67;1.20;;;;;;;25.16;28.33;97341.38;5056319;28;20991;-27
2021/03/24 01:49:56;;;;;;;2.58;1.48;;;;;;;25.15;28.47;97342.31;5038513;28;20237;-28
2021/03/24 01:52:22;;;;;;;1.95;1.40;;;;;;;25.15;28.25;97343.16;5019260;28;20030;-29
2021/03/24 01:54:47;;;;;;;1.63;1.30;;;;;;;25.15;28.40;97342.31;5031921;28;20025;-26
2021/03/24 01:57:20;;;;;;;2.80;1.50;;;;;;;25.16;28.52;97346.63;5052203;28;20024;-27
2021/03/24 01:59:47;;;;;;;2.45;1.45;;;;;;;25.14;28.57;97330.94;5037344;28;20032;-27
2021/03/24 02:02:20;;;;;;;2.80;1.40;;;;;;;25.15;28.50;97331.81;5053375;28;20036;-28
2021/03/24 02:04:49;;;;;;;1.63;1.20;;;;;;;25.14;28.47;97335.34;5056106;28;20058;-26
2021/03/24 02:07:18;;;;;;;1.65;1.23;;;;;;;25.13;28.47;97329.25;5039475;28;20036;-28
2021/03/24 02:10:05;;;;;;;5.38;1.20;;;;;;;25.13;28.49;97331.03;5054297;28;20031;-27
2021/03/24 02:12:41;;;;;;;1.77;1.50;;;;;;;25.12;28.51;97322.31;5055845;28;20721;-27
2021/03/24 02:15:16;;;;;;;3.95;1.30;;;;;;;25.13;28.23;97328.41;5025762;28;20157;-28
2021/03/24 02:17:43;;;;;;;1.70;1.23;;;;;;;25.12;28.50;97324.06;5055324;28;20108;-27
2021/03/24 02:20:11;;;;;;;1.52;1.15;;;;;;;25.11;28.52;97319.75;5033121;28;20115;-28
2021/03/24 02:22:52;;;;;;;1.75;1.55;;;;;;;25.11;28.32;97319.75;5051372;28;20028;-29
2021/03/24 02:25:31;;;;;;;2.15;1.30;;;;;;;25.10;28.44;97328.53;5041800;28;20036;-28
2021/03/24 02:27:57;;;;;;;3.13;1.65;;;;;;;25.10;28.40;97320.66;5036549;28;20411;-28
2021/03/24 02:30:24;;;;;;;5.32;1.30;;;;;;;25.10;28.38;97320.66;5048420;28;20036;-27
2021/03/24 02:32:51;;;;;;;2.15;1.40;;;;;;;25.09;28.37;97318.97;5046323;28;20541;-27
2021/03/24 02:35:19;;;;;;;1.77;1.33;;;;;;;25.10;28.24;97312.78;5031161;28;20540;-27
2021/03/24 02:37:45;;;;;;;2.63;1.80;;;;;;;25.08;28.21;97315.47;5051873;28;20085;-29
2021/03/24 02:40:13;;;;;;;2.83;1.67;;;;;;;25.08;28.18;97325.97;5038045;28;20044;-28
2021/03/24 02:42:40;;;;;;;1.73;1.40;;;;;;;25.09;28.41;97321.59;5044567;28;20025;-27
2021/03/24 02:45:07;;;;;;;1.35;1.15;;;;;;;25.08;28.37;97325.09;5035323;28;20028;-27
2021/03/24 02:47:36;;;;;;;2.35;1.23;;;;;;;25.08;28.44;97314.63;5032361;28;20028;-27
2021/03/24 02:50:01;;;;;;;3.28;1.48;;;;;;;25.07;28.34;97319.03;5036865;28;20029;-27
2021/03/24 02:52:27;;;;;;;2.63;1.30;;;;;;;25.08;28.17;97325.09;5018606;28;20032;-28
2021/03/24 02:54:52;;;;;;;1.33;0.88;;;;;;;25.05;28.25;97319.09;5037768;28;20036;-27
2021/03/24 02:57:17;;;;;;;1.30;1.20;;;;;;;25.07;28.12;97334.75;5015663;28;20647;-27
2021/03/24 02:59:43;;;;;;;3.38;1.63;;;;;;;25.07;28.32;97323.41;5026554;28;20484;-27
2021/03/24 03:02:16;;;;;;;1.35;1.25;;;;;;;25.07;28.23;97331.28;5048891;28;20032;-27
2021/03/24 03:04:47;;;;;;;2.28;1.52;;;;;;;25.07;28.38;97333.91;5041798;28;20057;-28
2021/03/24 03:07:21;;;;;;;1.50;1.20;;;;;;;25.04;28.31;97333.13;5042177;28;20051;-29
2021/03/24 03:09:57;;;;;;;3.35;1.20;;;;;;;25.07;28.25;97331.28;5028259;28;20032;-27
2021/03/24 03:12:37;;;;;;;2.05;1.52;;;;;;;25.05;28.16;97333.94;5057448;28;20064;-27
2021/03/24 03:15:15;;;;;;;2.03;1.30;;;;;;;25.04;28.34;97338.38;5035440;28;20028;-27
2021/03/24 03:17:42;;;;;;;1.92;1.30;;;;;;;25.04;28.26;97333.13;5048693;28;20032;-27
2021/03/24 03:20:11;;;;;;;2.55;1.20;;;;;;;25.04;28.21;97333.13;5041293;28;20452;-27
2021/03/24 03:22:39;;;;;;;2.45;1.20;;;;;;;25.03;28.22;97323.56;5019165;28;20044;-27
2021/03/24 03:25:15;;;;;;;1.85;1.15;;;;;;;25.03;28.33;97327.94;5027259;28;20047;-28
2021/03/24 03:27:41;;;;;;;1.65;1.20;;;;;;;25.03;28.36;97323.56;5023068;28;20024;-27
2021/03/24 03:30:09;;;;;;;2.33;1.10;;;;;;;25.02;28.20;97321.00;5041011;28;20531;-27
2021/03/24 03:32:34;;;;;;;6.88;1.30;;;;;;;25.01;28.21;97317.50;5018691;28;20024;-28
2021/03/24 03:35:04;;;;;;;2.17;1.10;;;;;;;25.02;28.46;97321.81;5038191;28;20031;-27
2021/03/24 03:37:30;;;;;;;1.45;1.00;;;;;;;25.01;28.20;97320.13;5032614;28;20052;-27
2021/03/24 03:39:55;;;;;;;1.20;1.10;;;;;;;25.01;28.32;97325.38;5034952;28;20033;-26
2021/03/24 03:42:22;;;;;;;1.58;1.23;;;;;;;25.01;28.22;97314.88;5016726;28;20023;-27
2021/03/24 03:44:48;;;;;;;2.05;1.13;;;;;;;25.01;28.16;97319.25;5044689;28;20020;-30
2021/03/24 03:47:14;;;;;;;1.55;1.08;;;;;;;25.01;28.09;97317.50;5041235;28;20093;-26
2021/03/24 03:49:39;;;;;;;1.80;1.20;;;;;;;25.01;28.32;97317.50;5038848;28;20032;-28
2021/03/24 03:52:24;;;;;;;1.20;1.10;;;;;;;25.01;28.27;97309.63;5038577;28;20138;-28
2021/03/24 03:55:06;;;;;;;1.42;1.15;;;;;;;25.01;28.34;97299.16;5042089;28;20039;-28
2021/03/24 03:57:35;;;;;;;1.45;1.17;;;;;;;25.01;28.37;97312.25;5055093;28;20047;-27
2021/03/24 04:00:09;;;;;;;3.92;1.30;;;;;;;25.01;28.15;97309.63;5040604;28;20025;-27
2021/03/24 04:02:39;;;;;;;1.52;1.27;;;;;;;25.01;28.04;97314.88;5036933;28;20036;-28
2021/03/24 04:05:06;;;;;;;1.77;1.10;;;;;;;25.00;28.35;97307.94;5042648;28;20466;-28
2021/03/24 04:07:41;;;;;;;1.08;0.98;;;;;;;25.00;28.23;97317.56;5040891;28;20048;-27
2021/03/24 04:10:07;;;;;;;1.48;0.90;;;;;;;25.01;28.16;97320.13;5021383;28;20024;-29
2021/03/24 04:12:34;;;;;;;1.98;1.10;;;;;;;25.00;28.20;97307.94;5058216;28;20039;-27
2021/03/24 04:15:00;;;;;;;1.00;0.90;;;;;;;25.00;28.22;97313.19;5044460;28;20401;-28
2021/03/24 04:17:27;;;;;;;1.20;1.10;;;;;;;25.01;28.10;97308.78;5029204;28;20062;-29
2021/03/24 04:19:53;;;;;;;1.15;1.02;;;;;;;25.01;28.12;97311.41;5017210;28;20770;-27
2021/03/24 04:22:21;;;;;;;1.20;1.00;;;;;;;25.01;28.44;97314.00;5037431;28;20191;-27
2021/03/24 04:24:49;;;;;;;2.10;1.00;;;;;;;25.01;28.13;97314.88;5038822;28;20090;-26
2021/03/24 04:27:14;;;;;;;1.45;1.20;;;;;;;25.02;28.35;97311.34;5024589;28;20059;-27
2021/03/24 04:29:53;;;;;;;1.58;1.02;;;;;;;25.02;28.32;97306.09;5018982;28;20123;-27
2021/03/24 04:32:18;;;;;;;1.33;1.13;;;;;;;25.02;28.22;97300.84;5037904;28;20033;-29
2021/03/24 04:34:44;;;;;;;4.05;1.02;;;;;;;25.03;28.12;97304.34;5049253;28;20029;-29
2021/03/24 04:37:28;;;;;;;1.58;1.20;;;;;;;25.02;28.37;97300.84;5031840;28;20646;-28
2021/03/24 04:40:02;;;;;;;1.98;1.17;;;;;;;25.03;28.19;97302.56;5044125;28;20071;-27
2021/03/24 04:42:50;;;;;;;1.25;0.90;;;;;;;25.03;28.11;97310.44;5049034;28;20634;-26
2021/03/24 04:45:24;;;;;;;1.35;1.25;;;;;;;25.03;28.02;97304.34;5026879;28;20090;-28
2021/03/24 04:47:52;;;;;;;1.27;1.00;;;;;;;25.04;28.17;97314.75;5053768;28;20546;-27
2021/03/24 04:50:26;;;;;;;1.10;0.95;;;;;;;25.04;28.03;97312.16;5038606;28;20025;-29
2021/03/24 04:52:52;;;;;;;2.15;1.17;;;;;;;25.05;28.10;97321.72;5025746;28;20615;-28
2021/03/24 04:55:21;;;;;;;1.02;0.93;;;;;;;25.05;28.07;97305.09;5030429;28;20514;-27
2021/03/24 04:57:46;;;;;;;1.23;0.90;;;;;;;25.05;28.16;97305.09;5023239;28;20036;-27
2021/03/24 05:00:30;;;;;;;1.40;1.00;;;;;;;25.06;28.17;97301.59;5039737;28;20032;-32
2021/03/24 05:02:57;;;;;;;0.90;0.90;;;;;;;25.07;28.13;97305.06;5041272;28;20033;-27
2021/03/24 05:05:24;;;;;;;1.17;1.00;;;;;;;25.07;28.08;97302.44;5041963;28;20400;-29
2021/03/24 05:07:54;;;;;;;1.30;1.10;;;;;;;25.07;28.16;97300.66;5023039;28;20021;-28
2021/03/24 05:10:22;;;;;;;1.55;1.13;;;;;;;25.08;28.09;97301.50;5020597;28;20373;-27
2021/03/24 05:12:49;;;;;;;1.73;1.15;;;;;;;25.07;28.23;97312.91;5023341;28;20060;-28
2021/03/24 05:15:22;;;;;;;1.73;1.25;;;;;;;25.09;28.23;97311.94;5024463;28;20444;-27
2021/03/24 05:17:48;;;;;;;1.42;1.10;;;;;;;25.10;28.14;97323.28;5019740;28;22018;-28
2021/03/24 05:20:16;;;;;;;2.08;1.10;;;;;;;25.09;28.19;97318.97;5036289;28;20028;-29
2021/03/24 05:22:45;;;;;;;1.42;1.00;;;;;;;25.10;28.17;97321.53;5049011;28;20658;-27
2021/03/24 05:25:32;;;;;;;2.60;1.08;;;;;;;25.12;28.27;97324.06;5044337;28;20670;-28
2021/03/24 05:28:04;;;;;;;1.90;1.20;;;;;;;25.11;28.06;97325.84;5055742;28;20825;-27
2021/03/24 05:30:32;;;;;;;1.00;0.80;;;;;;;25.12;28.18;97331.94;5034758;28;20025;-27
2021/03/24 05:33:03;;;;;;;1.33;1.10;;;;;;;25.13;28.20;97325.78;5039102;28;20503;-27
2021/03/24 05:35:41;;;;;;;1.73;1.20;;;;;;;25.13;27.96;97329.25;5058792;28;20024;-27
2021/03/24 05:38:13;;;;;;;1.33;1.00;;;;;;;25.13;28.17;97328.41;5034826;28;20032;-26
2021/03/24 05:41:02;;;;;;;1.45;1.10;;;;;;;25.13;27.95;97328.41;5028709;28;20043;-29
2021/03/24 05:43:35;;;;;;;1.42;0.90;;;;;;;25.14;28.08;97324.88;5040428;28;20033;-27
2021/03/24 05:46:34;;;;;;;1.08;0.90;;;;;;;25.13;28.16;97324.00;5038769;28;20774;-28
2021/03/24 05:49:36;;;;;;;2.05;1.30;;;;;;;25.12;28.17;97324.06;5035379;28;20024;-27
2021/03/24 05:52:07;;;;;;;3.30;1.50;;;;;;;25.14;27.93;97341.44;5049652;28;20040;-28
2021/03/24 05:54:48;;;;;;;1.40;1.30;;;;;;;25.14;28.11;97330.13;5039466;28;20052;-26
2021/03/24 05:57:16;;;;;;;1.52;1.05;;;;;;;25.14;28.04;97335.34;5021013;28;20496;-27
2021/03/24 05:59:56;;;;;;;1.60;1.10;;;;;;;25.15;28.07;97342.31;5043905;28;20032;-27
2021/03/24 06:02:51;;;;;;;1.25;1.15;;;;;;;25.14;28.21;97338.81;5034096;28;20024;-29
2021/03/24 06:05:20;;;;;;;1.42;1.17;;;;;;;25.15;28.23;97334.44;5038663;28;20369;-27
2021/03/24 06:08:07;;;;;;;1.40;0.98;;;;;;;25.15;28.02;97331.81;5032803;28;20336;-27
2021/03/24 06:10:41;;;;;;;2.42;1.40;;;;;;;25.14;28.19;97341.44;5043869;28;20055;-28
2021/03/24 06:13:06;;;;;;;0.93;0.80;;;;;;;25.15;28.19;97347.53;5046465;28;20123;-31
2021/03/24 06:15:56;;;;;;;2.03;1.38;;;;;;;25.15;28.14;97343.16;5054647;28;20738;-28
2021/03/24 06:18:29;;;;;;;1.45;0.88;;;;;;;25.16;27.93;97333.50;5050103;28;20396;-28
2021/03/24 06:21:09;;;;;;;1.20;1.10;;;;;;;25.17;28.09;97337.84;5037875;28;20039;-27
2021/03/24 06:23:45;;;;;;;1.52;1.00;;;;;;;25.12;28.09;97326.69;5033455;28;20039;-28
2021/03/24 06:26:22;;;;;;;1.92;1.38;;;;;;;25.17;28.28;97341.31;5056382;28;20206;-27
2021/03/24 06:29:44;;;;;;;1.60;1.05;;;;;;;25.16;28.03;97344.00;5020403;28;20409;-28
2021/03/24 06:32:24;;;;;;;2.53;1.30;;;;;;;25.17;28.27;97341.31;4948159;28;20041;-27
2021/03/24 06:35:24;;;;;;;2.30;1.20;;;;;;;25.17;28.08;97335.25;4947820;28;20027;-27
2021/03/24 06:37:50;;;;;;;1.30;1.10;;;;;;;25.18;28.08;97336.94;5031198;28;20049;-28
2021/03/24 06:40:34;;;;;;;2.05;1.40;;;;;;;25.18;28.20;97347.44;5053121;28;20044;-31
2021/03/24 06:43:15;;;;;;;1.30;1.20;;;;;;;25.18;28.19;97336.94;5049969;28;20016;-29
2021/03/24 06:45:47;;;;;;;1.73;1.25;;;;;;;25.18;27.98;97337.78;5051673;28;20558;-29
2021/03/24 06:48:17;;;;;;;;;;;;;;;25.19;28.00;97341.25;5038089;28;20071;-26
2021/03/24 06:51:08;;;;;;;1.10;1.00;;;;;;;25.18;28.15;97348.25;5032508;28;19916;-29
2021/03/24 06:54:07;;;;;;;1.65;1.20;;;;;;;25.18;28.21;97352.66;5030446;28;20029;-27
2021/03/24 06:56:47;;;;;;;1.63;1.20;;;;;;;25.18;28.25;97357.91;5050081;28;20033;-26
2021/03/24 06:59:38;;;;;;;6.30;2.92;;;;;;;25.16;28.08;97355.34;5054390;28;20025;-28
2021/03/24 07:02:26;;;;;;;2.33;1.88;;;;;;;25.15;27.93;97368.53;5054779;28;20032;-27
2021/03/24 07:05:01;;;;;;;1.92;1.30;;;;;;;25.14;28.19;97362.41;5039816;28;20111;-29
2021/03/24 07:08:04;;;;;;;2.30;1.40;;;;;;;25.14;28.18;97364.22;5052307;28;20032;-27
2021/03/24 07:10:35;;;;;;;1.52;1.20;;;;;;;25.15;28.25;97371.16;5051776;28;20021;-27
2021/03/24 07:13:32;;;;;;;2.50;1.50;;;;;;;25.15;28.31;97373.78;5052908;28;20032;-27
2021/03/24 07:16:00;;;;;;;1.70;1.30;;;;;;;25.15;28.34;97363.28;5054665;28;20085;-29
2021/03/24 07:18:50;;;;;;;1.73;1.38;;;;;;;25.16;28.18;97362.34;5054308;28;20459;-29
2021/03/24 07:21:31;;;;;;;2.65;1.30;;;;;;;25.17;28.33;97372.78;5049585;28;20590;-30
2021/03/24 07:24:21;;;;;;;1.70;1.50;;;;;;;25.17;28.36;97371.97;5051827;28;20212;-29
2021/03/24 07:27:00;;;;;;;3.00;1.45;;;;;;;25.18;28.24;97373.66;5006923;28;20049;-27
2021/03/24 07:29:47;;;;;;;1.20;1.02;;;;;;;25.19;28.27;97372.72;5052671;28;20052;-27
2021/03/24 07:32:41;;;;;;;3.10;1.27;;;;;;;25.19;28.30;97375.34;5035672;28;20036;-27
2021/03/24 07:35:19;;;;;;;7.93;1.60;;;;;;;25.20;28.36;97371.81;5049900;28;20020;-28
2021/03/24 07:38:11;;;;;;;5.80;1.48;;;;;;;25.22;28.18;97377.00;5051568;28;20040;-28
2021/03/24 07:40:55;;;;;;;;;;;;;;;25.23;28.35;97376.94;5012065;28;20120;-28
2021/03/24 07:43:31;;;;;;;5.15;2.17;;;;;;;25.25;28.12;97375.09;5044931;28;19923;-28
2021/03/24 07:46:31;;;;;;;15.73;3.25;;;;;;;25.25;28.21;97379.50;5033712;28;20040;-27
2021/03/24 07:49:03;;;;;;;1.92;1.63;;;;;;;25.26;28.05;97382.06;5037518;28;20549;-28
2021/03/24 07:52:05;;;;;;;3.50;1.83;;;;;;;25.27;28.20;97383.75;5053430;28;20044;-29
2021/03/24 07:54:33;;;;;;;8.20;1.90;;;;;;;25.30;28.28;97380.16;5052384;28;20032;-31
2021/03/24 07:57:30;;;;;;;3.45;1.75;;;;;;;25.31;28.04;97374.84;5033378;28;20414;-31
2021/03/24 08:00:14;;;;;;;6.70;1.60;;;;;;;25.36;28.11;97374.63;5037105;28;20052;-27
2021/03/24 08:02:52;;;;;;;3.05;1.63;;;;;;;25.40;28.45;97372.75;5050128;28;22480;-27
2021/03/24 08:05:37;;;;;;;3.22;1.25;;;;;;;25.43;28.35;97369.97;5027174;28;20543;-28
2021/03/24 08:08:21;;;;;;;2.33;1.45;;;;;;;25.46;28.31;97372.50;5051609;28;20074;-29
2021/03/24 08:11:19;;;;;;;3.67;1.60;;;;;;;25.50;28.47;97368.81;5072088;28;20709;-28
2021/03/24 08:13:57;;;;;;;3.50;1.48;;;;;;;25.53;28.27;97363.44;5073504;28;20506;-27
2021/03/24 08:16:29;;;;;;;6.72;1.40;;;;;;;25.55;28.20;97366.84;5055021;28;20657;-28
2021/03/24 08:19:08;;;;;;;2.28;1.27;;;;;;;25.57;28.24;97365.06;5054494;28;20024;-29
2021/03/24 08:21:43;;;;;;;5.97;1.30;;;;;;;25.61;28.22;97371.00;5050390;28;20033;-28
2021/03/24 08:24:23;;;;;;;2.22;1.20;;;;;;;25.64;28.31;97373.50;5071800;28;20036;-29
2021/03/24 08:26:52;;;;;;;3.95;1.42;;;;;;;25.66;28.38;97374.28;5074233;28;20073;-27
2021/03/24 08:29:20;;;;;;;5.40;1.23;;;;;;;25.69;28.43;97368.03;5041138;28;20065;-29
2021/03/24 08:32:01;;;;;;;3.22;1.20;;;;;;;25.72;28.49;97367.06;5073129;28;20534;-28
2021/03/24 08:34:45;;;;;;;2.40;1.20;;;;;;;25.73;28.44;97368.78;5071800;28;20041;-27
2021/03/24 08:37:28;;;;;;;8.85;3.67;;;;;;;25.75;28.23;97367.81;5070342;28;20036;-27
2021/03/24 08:40:15;;;;;;;2.75;1.77;;;;;;;25.76;28.19;97377.38;5073101;28;20153;-31
2021/03/24 08:43:13;;;;;;;2.08;1.65;;;;;;;25.77;28.12;97365.06;5070855;28;20028;-27
2021/03/24 08:46:16;;;;;;;1.90;1.30;;;;;;;25.78;28.35;97366.81;5060354;28;20051;-27
2021/03/24 08:48:51;;;;;;;2.25;1.20;;;;;;;25.80;28.32;97364.94;5072191;28;20063;-29
2021/03/24 08:51:52;;;;;;;2.97;1.75;;;;;;;25.81;28.26;97357.00;5065637;28;20027;-27
2021/03/24 08:54:43;;;;;;;1.38;1.17;;;;;;;25.82;28.40;97360.50;5038959;28;20419;-31
2021/03/24 08:57:27;;;;;;;3.08;1.40;;;;;;;25.83;28.46;97360.41;5071448;28;20430;-29
2021/03/24 08:59:54;;;;;;;1.58;0.90;;;;;;;25.86;28.51;97355.97;5067709;28;20059;-28
2021/03/24 09:02:52;;;;;;;1.42;0.90;;;;;;;25.86;28.56;97358.59;5068851;28;20027;-30
2021/03/24 09:05:42;;;;;;;1.30;1.05;;;;;;;25.89;28.41;97355.84;5052638;28;20029;-28
2021/03/24 09:08:34;;;;;;;2.13;1.10;;;;;;;25.89;28.47;97361.09;5054910;28;20020;-27
2021/03/24 09:11:21;;;;;;;1.38;1.00;;;;;;;25.90;28.59;97349.66;5051574;28;20035;-28
2021/03/24 09:14:16;;;;;;;5.43;1.08;;;;;;;25.91;28.79;97359.22;5070451;28;21028;-30
2021/03/24 09:17:07;;;;;;;3.85;2.00;;;;;;;25.92;28.36;97360.94;5049612;28;20066;-30
2021/03/24 09:20:03;;;;;;;5.30;1.58;;;;;;;25.92;28.27;97359.16;5064284;28;20101;-27
2021/03/24 09:22:48;;;;;;;1.80;1.40;;;;;;;25.93;28.22;97360.03;5063559;28;20027;-29
2021/03/24 09:25:19;;;;;;;1.88;1.42;;;;;;;25.93;28.25;97360.84;5037896;28;20067;-28
2021/03/24 09:27:54;;;;;;;4.65;1.67;;;;;;;25.94;28.12;97361.72;5053310;28;20501;-29
2021/03/24 09:30:50;;;;;;;7.65;2.05;;;;;;;25.94;28.01;97361.72;5071831;28;20028;-28
2021/03/24 09:33:29;;;;;;;13.85;8.05;;;;;;;25.87;26.29;97360.28;5051504;28;20023;-28
2021/03/24 09:36:17;;;;;;;13.82;9.00;;;;;;;25.72;25.00;97351.31;5056594;28;20032;-26
2021/03/24 09:38:42;;;;;;;12.90;8.52;;;;;;;25.45;24.09;97350.63;5050939;28;20048;-28
2021/03/24 09:41:29;;;;;;;11.52;8.27;;;;;;;25.21;23.39;97360.41;5052401;28;20777;-28
2021/03/24 09:43:58;;;;;;;10.55;8.60;;;;;;;25.00;22.69;97355.13;5055224;28;20028;-25
2021/03/24 09:46:31;;;;;;;12.82;8.60;;;;;;;24.83;23.02;97352.31;5037117;28;20028;-28
2021/03/24 09:48:59;;;;;;;22.05;8.30;;;;;;;24.59;22.99;97349.75;5053380;28;20081;-28
2021/03/24 09:51:43;;;;;;;8.60;6.28;;;;;;;24.43;22.85;97349.47;5038792;28;20144;-26
2021/03/24 09:54:25;;;;;;;15.05;7.78;;;;;;;24.24;22.58;97343.19;5041678;28;20040;-29
2021/03/24 09:57:17;;;;;;;10.57;7.45;;;;;;;24.10;22.76;97345.50;5071198;28;20024;-28
2021/03/24 09:59:59;;;;;;;12.68;8.57;;;;;;;23.95;22.71;97350.34;5067487;28;20096;-29
2021/03/24 10:02:27;;;;;;;14.30;8.90;;;;;;;23.79;22.42;97343.97;5055341;28;20149;-27
2021/03/24 10:04:54;;;;;;;10.30;7.93;;;;;;;23.62;22.75;97340.19;5069198;28;20186;-28
2021/03/24 10:07:30;;;;;;;11.90;9.13;;;;;;;23.45;21.91;97340.78;5071450;28;20114;-27
2021/03/24 10:10:03;;;;;;;12.95;8.80;;;;;;;23.30;22.48;97348.19;5054057;28;20032;-30
2021/03/24 10:12:50;;;;;;;24.30;8.90;;;;;;;23.21;22.84;97344.16;5076622;28;20099;-28
2021/03/24 10:15:33;;;;;;;14.10;5.72;;;;;;;23.21;23.48;97346.75;5040795;28;20028;-27
2021/03/24 10:18:09;;;;;;;11.85;4.60;;;;;;;23.25;23.71;97341.44;5072261;28;20033;-28
2021/03/24 10:20:51;;;;;;;15.23;4.95;;;;;;;23.33;23.67;97328.94;5072317;28;20028;-27
2021/03/24 10:23:45;;;;;;;7.97;4.13;;;;;;;23.42;24.18;97331.28;5041500;28;20032;-28
2021/03/24 10:26:20;;;;;;;10.45;3.92;;;;;;;23.53;24.14;97328.25;5051666;28;20036;-30
2021/03/24 10:29:00;;;;;;;11.13;4.05;;;;;;;23.65;24.46;97323.53;5057633;28;20032;-27
2021/03/24 10:31:56;;;;;;;12.23;3.92;;;;;;;23.77;24.48;97330.06;5053953;28;20059;-31
2021/03/24 10:34:32;;;;;;;7.57;3.80;;;;;;;23.88;24.38;97320.06;5053792;28;20031;-27
2021/03/24 10:37:06;;;;;;;10.27;3.55;;;;;;;23.96;24.30;97325.88;5041274;28;20020;-28
2021/03/24 10:39:45;;;;;;;9.57;3.47;;;;;;;24.05;24.57;97323.81;5049215;28;20860;-30
2021/03/24 10:42:32;;;;;;;6.55;3.30;;;;;;;24.13;24.55;97317.41;5053793;28;20491;-28
2021/03/24 10:45:22;;;;;;;4.88;2.90;;;;;;;24.22;24.47;97316.19;5040367;28;20234;-26
2021/03/24 10:48:10;;;;;;;5.90;3.03;;;;;;;24.30;24.77;97315.94;5050979;28;20170;-31
2021/03/24 10:50:44;;;;;;;7.68;2.95;;;;;;;24.37;24.56;97319.16;5050716;28;20347;-29
2021/03/24 10:53:23;;;;;;;5.05;2.58;;;;;;;24.43;24.58;97320.66;5047523;28;20481;-28
2021/03/24 10:56:27;;;;;;;12.43;3.65;;;;;;;24.45;24.48;97311.00;5066752;28;20438;-26
2021/03/24 10:58:55;;;;;;;10.73;3.10;;;;;;;24.50;24.67;97304.66;5048632;28;20036;-28
2021/03/24 11:01:39;;;;;;;14.45;3.13;;;;;;;24.56;24.85;97300.94;5067427;28;20035;-28
2021/03/24 11:04:29;;;;;;;15.38;3.40;;;;;;;24.62;24.97;97302.44;5069635;28;20771;-28
2021/03/24 11:07:31;;;;;;;16.83;3.10;;;;;;;24.65;24.99;97302.34;5069953;28;20578;-27
2021/03/24 11:10:13;;;;;;;10.50;3.40;;;;;;;24.70;25.14;97305.63;5057772;28;20086;-28
2021/03/24 11:12:44;;;;;;;11.32;3.35;;;;;;;24.73;25.17;97305.50;5052690;28;20602;-27
2021/03/24 11:15:41;;;;;;;6.53;2.88;;;;;;;24.76;25.09;97294.03;5040042;28;20496;-27
2021/03/24 11:18:11;;;;;;;11.88;3.28;;;;;;;24.83;25.07;97297.25;5038968;28;20044;-28
2021/03/24 11:20:55;;;;;;;8.73;3.42;;;;;;;24.85;25.39;97288.44;5037809;28;20020;-28
2021/03/24 11:23:49;;;;;;;9.25;3.22;;;;;;;24.89;25.37;97283.94;5042403;28;20032;-29
2021/03/24 11:26:18;;;;;;;14.05;3.42;;;;;;;24.91;25.25;97282.09;5043988;28;20036;-28
2021/03/24 11:28:43;;;;;;;8.73;3.20;;;;;;;24.93;25.35;97285.50;5072094;28;20134;-27
2021/03/24 11:31:11;;;;;;;13.75;3.33;;;;;;;24.95;25.36;97282.81;5056859;28;20102;-27
2021/03/24 11:33:42;;;;;;;11.68;2.90;;;;;;;25.00;25.49;97292.22;5072900;28;20020;-28
2021/03/24 11:36:18;;;;;;;6.88;3.22;;;;;;;25.01;25.63;97283.41;5060218;28;20075;-27
2021/03/24 11:39:05;;;;;;;10.38;3.10;;;;;;;25.04;25.52;97278.06;5043485;28;21112;-27
2021/03/24 11:41:34;;;;;;;11.35;3.22;;;;;;;25.09;25.85;97277.84;5072219;28;20055;-27
2021/03/24 11:44:01;;;;;;;6.50;2.80;;;;;;;25.09;25.68;97271.75;5056037;28;20028;-26
2021/03/24 11:46:30;;;;;;;6.20;2.72;;;;;;;25.13;25.64;97273.34;5057589;28;20086;-27
2021/03/24 11:49:22;;;;;;;6.03;2.50;;;;;;;25.15;25.67;97268.88;5055011;28;20027;-28
2021/03/24 11:52:00;;;;;;;9.13;2.78;;;;;;;25.17;25.68;97272.28;5074972;28;20028;-28
2021/03/24 11:54:35;;;;;;;7.97;2.72;;;;;;;25.18;25.77;97274.00;5079838;28;20611;-27
2021/03/24 11:57:20;;;;;;;7.35;2.55;;;;;;;25.19;25.87;97270.44;5072202;28;20093;-29
2021/03/24 11:59:54;;;;;;;7.95;2.55;;;;;;;25.22;25.90;97270.31;5072575;28;20039;-27
2021/03/24 12:02:39;;;;;;;6.47;2.33;;;;;;;25.24;26.08;97262.38;5057249;28;20523;-27
2021/03/24 12:05:22;;;;;;;8.90;2.88;;;;;;;25.25;26.14;97259.66;5070587;28;20036;-35
2021/03/24 12:07:54;;;;;;;3.72;2.30;;;;;;;25.26;26.14;97253.53;5060600;28;20663;-27
2021/03/24 12:10:44;;;;;;;3.95;2.13;;;;;;;25.27;26.29;97252.59;5074371;28;20049;-27